createdAt,value
2023-04-05T00:03:12.169Z,5.90
2023-04-05T00:08:38.305Z,5.90
2023-04-05T00:13:47.737Z,5.90
2023-04-05T00:18:55.512Z,5.80
2023-04-05T00:24:01.092Z,5.80
2023-04-05T00:29:03.420Z,5.80
2023-04-05T00:34:13.439Z,5.70
2023-04-05T00:39:35.917Z,5.70
2023-04-05T00:45:02.457Z,5.60
2023-04-05T00:50:13.677Z,5.50
2023-04-05T00:55:28.456Z,5.40
2023-04-05T01:00:38.784Z,5.40
2023-04-05T01:06:30.547Z,5.30
2023-04-05T01:36:57.666Z,4.90
2023-04-05T01:50:01.339Z,4.80
2023-04-05T01:56:43.668Z,4.70
2023-04-05T02:14:31.398Z,4.60
2023-04-05T02:19:53.801Z,4.50
2023-04-05T02:36:46.062Z,4.40
2023-04-05T02:48:49.045Z,4.40
2023-04-05T02:54:09.673Z,4.40
2023-04-05T02:59:59.444Z,4.40
2023-04-05T03:05:46.261Z,4.30
2023-04-05T03:10:54.154Z,4.20
2023-04-05T03:22:20.627Z,4.10
2023-04-05T03:34:24.644Z,4.00
2023-04-05T04:06:43.042Z,3.70
2023-04-05T04:11:59.984Z,3.60
2023-04-05T04:17:58.342Z,3.70
2023-04-05T04:23:24.844Z,3.60
2023-04-05T04:28:44.047Z,3.60
2023-04-05T04:34:28.315Z,3.60
2023-04-05T04:45:18.733Z,3.40
2023-04-05T05:09:47.885Z,3.20
2023-04-05T05:14:49.788Z,3.10
2023-04-05T05:19:53.019Z,3.10
2023-04-05T05:24:56.187Z,3.10
2023-04-05T05:29:58.128Z,3.00
2023-04-05T05:34:59.953Z,3.00
2023-04-05T05:40:01.826Z,3.00
2023-04-05T05:45:05.334Z,3.00
2023-04-05T05:50:09.186Z,3.10
2023-04-05T05:55:11.180Z,3.10
2023-04-05T06:00:13.828Z,3.10
2023-04-05T06:05:15.946Z,3.10
2023-04-05T06:10:17.862Z,3.20
2023-04-05T06:15:19.761Z,3.20
2023-04-05T06:20:21.728Z,3.30
2023-04-05T06:25:23.721Z,3.30
2023-04-05T06:30:25.696Z,3.30
2023-04-05T06:35:27.584Z,3.40
2023-04-05T06:40:29.460Z,3.50
2023-04-05T06:45:31.892Z,3.50
2023-04-05T06:50:33.852Z,3.60
2023-04-05T06:55:35.937Z,3.60
2023-04-05T07:00:37.971Z,3.60
2023-04-05T07:05:39.821Z,3.70
2023-04-05T07:10:41.973Z,3.70
2023-04-05T07:15:45.047Z,3.70
2023-04-05T07:20:48.447Z,3.80
2023-04-05T07:25:50.582Z,3.80
2023-04-05T07:30:52.612Z,3.90
2023-04-05T07:35:55.597Z,4.10
2023-04-05T07:40:57.628Z,4.30
2023-04-05T07:46:06.023Z,4.40
2023-04-05T07:51:10.058Z,4.50
2023-04-05T07:56:13.530Z,4.60
2023-04-05T08:01:15.569Z,4.70
2023-04-05T08:06:18.008Z,4.90
2023-04-05T08:11:19.868Z,5.10
2023-04-05T08:16:21.774Z,5.30
2023-04-05T08:21:23.894Z,5.40
2023-04-05T08:26:28.229Z,5.60
2023-04-05T08:31:30.161Z,5.70
2023-04-05T08:36:32.053Z,5.80
2023-04-05T08:41:41.678Z,6.00
2023-04-05T08:46:43.861Z,6.10
2023-04-05T08:51:45.781Z,6.30
2023-04-05T08:56:51.743Z,6.50
2023-04-05T09:01:54.262Z,6.70
2023-04-05T09:06:58.451Z,6.90
2023-04-05T09:12:01.475Z,7.10
2023-04-05T09:17:04.427Z,7.30
2023-04-05T09:22:10.840Z,7.40
2023-04-05T09:27:17.831Z,7.50
2023-04-05T09:32:21.363Z,7.80
2023-04-05T09:37:23.374Z,7.90
2023-04-05T09:42:26.158Z,8.10
2023-04-05T09:47:34.225Z,8.30
2023-04-05T09:52:36.788Z,8.70
2023-04-05T09:57:40.001Z,8.90
2023-04-05T10:02:42.022Z,9.20
2023-04-05T10:07:44.418Z,9.50
2023-04-05T10:12:47.202Z,9.70
2023-04-05T10:17:53.119Z,9.80
2023-04-05T10:23:07.977Z,10.00
2023-04-05T10:28:35.357Z,10.20
2023-04-05T10:33:44.726Z,10.60
2023-04-05T10:39:11.380Z,11.00
2023-04-05T10:44:23.110Z,11.50
2023-04-05T10:49:40.701Z,11.80
2023-04-05T10:54:43.170Z,12.10
2023-04-05T10:59:46.894Z,12.60
2023-04-05T11:04:57.568Z,12.70
2023-04-05T11:10:03.231Z,13.10
2023-04-05T11:15:34.979Z,13.70
2023-04-05T11:20:52.112Z,14.30
2023-04-05T11:26:04.295Z,15.00
2023-04-05T11:31:29.341Z,15.30
2023-04-05T11:36:35.738Z,15.80
2023-04-05T11:41:38.631Z,16.30
2023-04-05T11:46:41.878Z,16.20
2023-04-05T11:51:44.211Z,16.20
2023-04-05T11:56:52.231Z,16.50
2023-04-05T12:02:06.205Z,17.10
2023-04-05T12:07:11.799Z,17.50
2023-04-05T12:12:18.514Z,17.70
2023-04-05T12:17:57.465Z,17.80
2023-04-05T12:22:59.673Z,18.20
2023-04-05T12:28:06.516Z,18.40
2023-04-05T12:33:11.533Z,18.50
2023-04-05T12:38:15.959Z,18.60
2023-04-05T12:43:19.723Z,19.00
2023-04-05T12:48:25.688Z,19.30
2023-04-05T12:53:28.815Z,19.40
2023-04-05T12:58:35.914Z,19.50
2023-04-05T13:03:37.886Z,19.50
2023-04-05T13:08:39.797Z,19.30
2023-04-05T13:13:41.731Z,19.50
2023-04-05T13:18:44.410Z,19.50
2023-04-05T13:23:46.295Z,19.30
2023-04-05T13:28:48.190Z,19.20
2023-04-05T13:33:50.101Z,19.10
2023-04-05T13:38:52.030Z,19.30
2023-04-05T13:43:53.881Z,19.50
2023-04-05T13:48:55.836Z,19.40
2023-04-05T13:53:58.110Z,19.30
2023-04-05T13:59:00.092Z,19.40
2023-04-05T14:04:02.291Z,19.50
2023-04-05T14:09:04.961Z,19.10
2023-04-05T14:14:06.893Z,18.60
2023-04-05T14:19:08.887Z,18.80
2023-04-05T14:24:10.892Z,19.10
2023-04-05T14:29:13.153Z,19.40
2023-04-05T14:34:15.090Z,19.60
2023-04-05T14:39:16.997Z,19.60
2023-04-05T14:44:18.872Z,20.00
2023-04-05T14:49:21.596Z,20.20
2023-04-05T14:54:23.540Z,20.40
2023-04-05T14:59:26.386Z,20.30
2023-04-05T15:04:28.908Z,20.30
2023-04-05T15:09:30.746Z,20.10
2023-04-05T15:14:32.726Z,19.50
2023-04-05T15:19:35.588Z,19.30
2023-04-05T15:24:38.163Z,19.30
2023-04-05T15:29:40.080Z,19.30
2023-04-05T15:34:42.178Z,19.30
2023-04-05T15:39:44.077Z,19.10
2023-04-05T15:44:46.304Z,18.90
2023-04-05T15:49:49.182Z,18.80
2023-04-05T15:54:51.115Z,18.80
2023-04-05T15:59:54.502Z,18.60
2023-04-05T16:04:56.354Z,18.30
2023-04-05T16:09:58.280Z,17.80
2023-04-05T16:15:00.186Z,17.50
2023-04-05T16:20:02.286Z,17.00
2023-04-05T16:25:04.701Z,16.70
2023-04-05T16:30:07.504Z,16.20
2023-04-05T16:35:09.608Z,15.50
2023-04-05T16:40:11.815Z,15.10
2023-04-05T16:45:13.798Z,14.70
2023-04-05T16:50:15.779Z,14.30
2023-04-05T16:55:17.710Z,13.80
2023-04-05T17:00:20.065Z,13.60
2023-04-05T17:05:21.987Z,13.30
2023-04-05T17:10:23.855Z,13.10
2023-04-05T17:15:26.387Z,12.80
2023-04-05T17:20:28.481Z,12.70
2023-04-05T17:25:31.462Z,12.50
2023-04-05T17:30:33.524Z,12.30
2023-04-05T17:35:35.635Z,12.10
2023-04-05T17:40:37.699Z,12.00
2023-04-05T17:45:39.720Z,11.80
2023-04-05T17:50:41.880Z,11.70
2023-04-05T17:55:45.284Z,11.60
2023-04-05T18:00:47.252Z,11.40
2023-04-05T18:05:58.170Z,11.30
2023-04-05T18:11:02.669Z,11.30
2023-04-05T18:16:05.598Z,11.10
2023-04-05T18:21:07.782Z,11.00
2023-04-05T18:26:14.461Z,10.90
2023-04-05T18:31:19.375Z,10.70
2023-04-05T19:25:03.908Z,9.70
2023-04-05T19:37:01.581Z,9.50
2023-04-05T19:43:17.606Z,9.50
2023-04-05T20:14:50.950Z,9.20
2023-04-05T20:20:58.669Z,9.20
2023-04-05T20:56:16.505Z,8.60
2023-04-05T21:14:49.805Z,8.50
2023-04-05T21:19:45.310Z,8.40
2023-04-05T21:31:18.705Z,8.20
2023-04-05T21:36:30.004Z,8.10
2023-04-05T21:42:11.529Z,8.10
2023-04-05T21:58:55.886Z,7.90
2023-04-05T22:04:20.363Z,7.80
2023-04-05T22:09:40.766Z,7.70
2023-04-05T22:14:54.777Z,7.70
2023-04-05T22:20:09.926Z,7.60
2023-04-05T22:25:45.616Z,7.50
2023-04-05T22:31:10.618Z,7.50
2023-04-05T22:36:33.733Z,7.40
2023-04-05T22:41:47.344Z,7.40
2023-04-05T22:47:16.381Z,7.40
2023-04-05T22:52:33.486Z,7.30
2023-04-05T22:57:50.701Z,7.30
2023-04-05T23:02:58.828Z,7.20
2023-04-05T23:08:24.088Z,7.10
2023-04-05T23:13:36.727Z,7.10
2023-04-05T23:19:02.375Z,7.10
2023-04-05T23:24:21.984Z,7.10
2023-04-05T23:29:47.857Z,7.00
2023-04-05T23:35:18.729Z,7.10
2023-04-05T23:40:29.149Z,7.00
2023-04-05T23:45:55.921Z,7.00
2023-04-05T23:51:03.431Z,7.00
2023-04-05T23:56:20.534Z,6.90
